sensor_id;sensor_type;location;lat;lon;timestamp;P1;durP1;ratioP1;P2;durP2;ratioP2
59054;SDS011;44845;51.444;7.460;2023-03-26T00:02:03;6.15;;;1.20;;
59054;SDS011;44845;51.444;7.460;2023-03-26T00:04:29;3.08;;;0.88;;
59054;SDS011;44845;51.444;7.460;2023-03-26T00:06:57;7.22;;;1.40;;
59054;SDS011;44845;51.444;7.460;2023-03-26T00:09:22;7.63;;;1.65;;
59054;SDS011;44845;51.444;7.460;2023-03-26T00:11:47;6.05;;;1.35;;
59054;SDS011;44845;51.444;7.460;2023-03-26T00:14:13;6.43;;;1.50;;
59054;SDS011;44845;51.444;7.460;2023-03-26T00:16:41;8.15;;;1.92;;
59054;SDS011;44845;51.444;7.460;2023-03-26T00:19:07;12.32;;;1.88;;
59054;SDS011;44845;51.444;7.460;2023-03-26T00:21:33;7.25;;;1.83;;
59054;SDS011;44845;51.444;7.460;2023-03-26T00:24:03;10.90;;;2.10;;
59054;SDS011;44845;51.444;7.460;2023-03-26T00:26:31;9.57;;;2.10;;
59054;SDS011;44845;51.444;7.460;2023-03-26T00:28:58;10.63;;;2.13;;
59054;SDS011;44845;51.444;7.460;2023-03-26T00:31:24;12.32;;;2.58;;
59054;SDS011;44845;51.444;7.460;2023-03-26T00:33:50;12.52;;;2.30;;
59054;SDS011;44845;51.444;7.460;2023-03-26T00:36:19;7.50;;;2.03;;
59054;SDS011;44845;51.444;7.460;2023-03-26T00:38:45;9.98;;;1.98;;
59054;SDS011;44845;51.444;7.460;2023-03-26T00:41:12;16.65;;;2.38;;
59054;SDS011;44845;51.444;7.460;2023-03-26T00:43:46;11.07;;;2.38;;
59054;SDS011;44845;51.444;7.460;2023-03-26T00:46:12;14.80;;;2.83;;
59054;SDS011;44845;51.444;7.460;2023-03-26T00:48:38;16.58;;;2.40;;
59054;SDS011;44845;51.444;7.460;2023-03-26T00:51:06;11.40;;;1.88;;
59054;SDS011;44845;51.444;7.460;2023-03-26T00:53:32;14.23;;;2.95;;
59054;SDS011;44845;51.444;7.460;2023-03-26T00:55:58;16.35;;;2.40;;
59054;SDS011;44845;51.444;7.460;2023-03-26T00:58:24;19.08;;;2.60;;
59054;SDS011;44845;51.444;7.460;2023-03-26T01:00:52;16.92;;;2.63;;
59054;SDS011;44845;51.444;7.460;2023-03-26T01:03:23;11.68;;;2.47;;
59054;SDS011;44845;51.444;7.460;2023-03-26T01:05:56;15.85;;;2.60;;
59054;SDS011;44845;51.444;7.460;2023-03-26T01:08:32;20.08;;;3.58;;
59054;SDS011;44845;51.444;7.460;2023-03-26T01:11:05;21.00;;;3.15;;
59054;SDS011;44845;51.444;7.460;2023-03-26T01:13:38;17.23;;;3.60;;
59054;SDS011;44845;51.444;7.460;2023-03-26T01:16:08;14.32;;;2.30;;
59054;SDS011;44845;51.444;7.460;2023-03-26T01:18:55;17.08;;;3.00;;
59054;SDS011;44845;51.444;7.460;2023-03-26T01:21:23;19.23;;;3.15;;
59054;SDS011;44845;51.444;7.460;2023-03-26T01:23:55;17.30;;;3.60;;
59054;SDS011;44845;51.444;7.460;2023-03-26T01:28:55;15.73;;;3.60;;
59054;SDS011;44845;51.444;7.460;2023-03-26T01:34:06;19.92;;;3.30;;
59054;SDS011;44845;51.444;7.460;2023-03-26T01:37:09;16.58;;;2.85;;
59054;SDS011;44845;51.444;7.460;2023-03-26T01:39:54;17.02;;;3.30;;
59054;SDS011;44845;51.444;7.460;2023-03-26T01:45:29;19.52;;;3.53;;
59054;SDS011;44845;51.444;7.460;2023-03-26T01:47:58;17.88;;;3.25;;
59054;SDS011;44845;51.444;7.460;2023-03-26T01:50:24;20.60;;;3.40;;
59054;SDS011;44845;51.444;7.460;2023-03-26T01:52:50;17.35;;;3.45;;
59054;SDS011;44845;51.444;7.460;2023-03-26T01:55:15;18.83;;;3.03;;
59054;SDS011;44845;51.444;7.460;2023-03-26T01:57:48;21.25;;;3.22;;
59054;SDS011;44845;51.444;7.460;2023-03-26T02:00:21;18.45;;;3.10;;
59054;SDS011;44845;51.444;7.460;2023-03-26T02:05:45;14.27;;;3.03;;
59054;SDS011;44845;51.444;7.460;2023-03-26T02:11:14;19.42;;;3.20;;
59054;SDS011;44845;51.444;7.460;2023-03-26T02:13:40;20.02;;;2.85;;
59054;SDS011;44845;51.444;7.460;2023-03-26T02:16:08;19.50;;;2.83;;
59054;SDS011;44845;51.444;7.460;2023-03-26T02:18:38;18.10;;;3.47;;
59054;SDS011;44845;51.444;7.460;2023-03-26T02:21:16;18.17;;;3.10;;
59054;SDS011;44845;51.444;7.460;2023-03-26T02:23:50;21.10;;;3.50;;
59054;SDS011;44845;51.444;7.460;2023-03-26T02:26:21;18.60;;;3.03;;
59054;SDS011;44845;51.444;7.460;2023-03-26T02:28:48;17.23;;;2.88;;
59054;SDS011;44845;51.444;7.460;2023-03-26T02:31:14;18.25;;;3.03;;
59054;SDS011;44845;51.444;7.460;2023-03-26T02:33:40;26.48;;;3.35;;
59054;SDS011;44845;51.444;7.460;2023-03-26T02:36:08;18.55;;;3.17;;
59054;SDS011;44845;51.444;7.460;2023-03-26T02:38:34;16.40;;;3.22;;
59054;SDS011;44845;51.444;7.460;2023-03-26T02:41:00;19.50;;;3.10;;
59054;SDS011;44845;51.444;7.460;2023-03-26T02:43:26;22.33;;;3.45;;
59054;SDS011;44845;51.444;7.460;2023-03-26T02:45:52;26.20;;;3.00;;
59054;SDS011;44845;51.444;7.460;2023-03-26T02:48:17;18.15;;;2.83;;
59054;SDS011;44845;51.444;7.460;2023-03-26T02:50:43;25.98;;;3.25;;
59054;SDS011;44845;51.444;7.460;2023-03-26T02:53:08;13.32;;;2.83;;
59054;SDS011;44845;51.444;7.460;2023-03-26T02:55:34;16.33;;;3.10;;
59054;SDS011;44845;51.444;7.460;2023-03-26T02:57:59;14.68;;;2.80;;
59054;SDS011;44845;51.444;7.460;2023-03-26T03:00:25;19.73;;;3.15;;
59054;SDS011;44845;51.444;7.460;2023-03-26T03:02:50;21.23;;;3.08;;
59054;SDS011;44845;51.444;7.460;2023-03-26T03:05:22;15.38;;;2.97;;
59054;SDS011;44845;51.444;7.460;2023-03-26T03:07:50;21.20;;;3.70;;
59054;SDS011;44845;51.444;7.460;2023-03-26T03:10:16;19.05;;;2.83;;
59054;SDS011;44845;51.444;7.460;2023-03-26T03:12:45;20.75;;;3.40;;
59054;SDS011;44845;51.444;7.460;2023-03-26T03:15:12;19.65;;;2.72;;
59054;SDS011;44845;51.444;7.460;2023-03-26T03:17:37;12.00;;;2.67;;
59054;SDS011;44845;51.444;7.460;2023-03-26T03:20:03;19.35;;;2.90;;
59054;SDS011;44845;51.444;7.460;2023-03-26T03:22:31;24.38;;;3.33;;
59054;SDS011;44845;51.444;7.460;2023-03-26T03:24:57;22.73;;;2.95;;
59054;SDS011;44845;51.444;7.460;2023-03-26T03:27:23;20.42;;;3.72;;
59054;SDS011;44845;51.444;7.460;2023-03-26T03:29:50;21.92;;;2.85;;
59054;SDS011;44845;51.444;7.460;2023-03-26T03:32:17;17.63;;;3.08;;
59054;SDS011;44845;51.444;7.460;2023-03-26T03:34:43;18.35;;;3.03;;
59054;SDS011;44845;51.444;7.460;2023-03-26T03:37:08;20.50;;;2.90;;
59054;SDS011;44845;51.444;7.460;2023-03-26T03:39:34;17.00;;;2.67;;
59054;SDS011;44845;51.444;7.460;2023-03-26T03:41:59;16.17;;;3.60;;
59054;SDS011;44845;51.444;7.460;2023-03-26T03:44:24;20.35;;;3.30;;
59054;SDS011;44845;51.444;7.460;2023-03-26T03:46:50;16.33;;;2.60;;
59054;SDS011;44845;51.444;7.460;2023-03-26T03:49:18;19.17;;;3.13;;
59054;SDS011;44845;51.444;7.460;2023-03-26T03:51:43;14.98;;;2.20;;
59054;SDS011;44845;51.444;7.460;2023-03-26T03:54:09;21.50;;;2.50;;
59054;SDS011;44845;51.444;7.460;2023-03-26T03:56:34;15.07;;;2.80;;
59054;SDS011;44845;51.444;7.460;2023-03-26T03:59:00;14.52;;;2.35;;
59054;SDS011;44845;51.444;7.460;2023-03-26T04:01:25;15.18;;;2.63;;
59054;SDS011;44845;51.444;7.460;2023-03-26T04:03:50;15.73;;;2.60;;
59054;SDS011;44845;51.444;7.460;2023-03-26T04:06:16;17.58;;;2.95;;
59054;SDS011;44845;51.444;7.460;2023-03-26T04:08:42;23.50;;;2.55;;
59054;SDS011;44845;51.444;7.460;2023-03-26T04:11:08;15.52;;;2.75;;
59054;SDS011;44845;51.444;7.460;2023-03-26T04:13:34;17.67;;;2.38;;
59054;SDS011;44845;51.444;7.460;2023-03-26T04:16:00;21.30;;;3.33;;
59054;SDS011;44845;51.444;7.460;2023-03-26T04:18:25;15.93;;;2.97;;
59054;SDS011;44845;51.444;7.460;2023-03-26T04:20:51;20.48;;;2.60;;
59054;SDS011;44845;51.444;7.460;2023-03-26T04:23:19;15.82;;;2.45;;
59054;SDS011;44845;51.444;7.460;2023-03-26T04:25:50;16.35;;;2.53;;
59054;SDS011;44845;51.444;7.460;2023-03-26T04:31:07;13.70;;;2.78;;
59054;SDS011;44845;51.444;7.460;2023-03-26T04:33:36;20.17;;;3.88;;
59054;SDS011;44845;51.444;7.460;2023-03-26T04:36:03;14.73;;;2.70;;
59054;SDS011;44845;51.444;7.460;2023-03-26T04:38:33;13.48;;;1.98;;
59054;SDS011;44845;51.444;7.460;2023-03-26T04:41:05;19.13;;;2.72;;
59054;SDS011;44845;51.444;7.460;2023-03-26T04:43:35;22.95;;;3.13;;
59054;SDS011;44845;51.444;7.460;2023-03-26T04:46:00;13.93;;;2.30;;
59054;SDS011;44845;51.444;7.460;2023-03-26T04:48:29;17.92;;;2.63;;
59054;SDS011;44845;51.444;7.460;2023-03-26T04:50:54;19.83;;;2.65;;
59054;SDS011;44845;51.444;7.460;2023-03-26T04:53:20;13.93;;;2.65;;
59054;SDS011;44845;51.444;7.460;2023-03-26T04:58:32;10.57;;;2.38;;
59054;SDS011;44845;51.444;7.460;2023-03-26T05:00:59;14.80;;;2.63;;
59054;SDS011;44845;51.444;7.460;2023-03-26T05:03:29;22.83;;;3.08;;
59054;SDS011;44845;51.444;7.460;2023-03-26T05:05:55;16.20;;;3.25;;
59054;SDS011;44845;51.444;7.460;2023-03-26T05:08:24;17.35;;;3.03;;
59054;SDS011;44845;51.444;7.460;2023-03-26T05:10:50;14.35;;;2.47;;
59054;SDS011;44845;51.444;7.460;2023-03-26T05:13:16;13.80;;;2.75;;
59054;SDS011;44845;51.444;7.460;2023-03-26T05:15:41;13.20;;;2.28;;
59054;SDS011;44845;51.444;7.460;2023-03-26T05:18:07;15.02;;;2.45;;
59054;SDS011;44845;51.444;7.460;2023-03-26T05:20:32;22.70;;;2.65;;
59054;SDS011;44845;51.444;7.460;2023-03-26T05:22:58;12.10;;;2.70;;
59054;SDS011;44845;51.444;7.460;2023-03-26T05:25:23;14.40;;;2.50;;
59054;SDS011;44845;51.444;7.460;2023-03-26T05:27:49;16.23;;;2.45;;
59054;SDS011;44845;51.444;7.460;2023-03-26T05:30:15;15.70;;;2.88;;
59054;SDS011;44845;51.444;7.460;2023-03-26T05:32:42;12.15;;;2.53;;
59054;SDS011;44845;51.444;7.460;2023-03-26T05:35:08;20.73;;;3.20;;
59054;SDS011;44845;51.444;7.460;2023-03-26T05:37:34;16.48;;;2.42;;
59054;SDS011;44845;51.444;7.460;2023-03-26T05:39:59;9.93;;;1.80;;
59054;SDS011;44845;51.444;7.460;2023-03-26T05:42:25;12.27;;;2.60;;
59054;SDS011;44845;51.444;7.460;2023-03-26T05:44:50;16.33;;;1.88;;
59054;SDS011;44845;51.444;7.460;2023-03-26T05:47:16;15.73;;;2.58;;
59054;SDS011;44845;51.444;7.460;2023-03-26T05:49:41;16.38;;;2.33;;
59054;SDS011;44845;51.444;7.460;2023-03-26T05:52:06;13.65;;;2.70;;
59054;SDS011;44845;51.444;7.460;2023-03-26T05:54:32;9.90;;;2.30;;
59054;SDS011;44845;51.444;7.460;2023-03-26T05:56:57;19.48;;;2.65;;
59054;SDS011;44845;51.444;7.460;2023-03-26T05:59:24;15.70;;;2.92;;
59054;SDS011;44845;51.444;7.460;2023-03-26T06:01:49;18.25;;;2.45;;
59054;SDS011;44845;51.444;7.460;2023-03-26T06:04:15;12.48;;;2.53;;
59054;SDS011;44845;51.444;7.460;2023-03-26T06:06:41;10.68;;;2.10;;
59054;SDS011;44845;51.444;7.460;2023-03-26T06:09:08;14.73;;;2.30;;
59054;SDS011;44845;51.444;7.460;2023-03-26T06:11:36;13.55;;;2.10;;
59054;SDS011;44845;51.444;7.460;2023-03-26T06:14:01;11.50;;;2.25;;
59054;SDS011;44845;51.444;7.460;2023-03-26T06:16:27;9.60;;;1.75;;
59054;SDS011;44845;51.444;7.460;2023-03-26T06:18:52;11.60;;;2.30;;
59054;SDS011;44845;51.444;7.460;2023-03-26T06:21:18;9.57;;;2.63;;
59054;SDS011;44845;51.444;7.460;2023-03-26T06:23:43;13.18;;;2.47;;
59054;SDS011;44845;51.444;7.460;2023-03-26T06:26:08;9.95;;;1.88;;
59054;SDS011;44845;51.444;7.460;2023-03-26T06:28:34;14.55;;;2.22;;
59054;SDS011;44845;51.444;7.460;2023-03-26T06:31:00;11.00;;;2.22;;
59054;SDS011;44845;51.444;7.460;2023-03-26T06:33:26;14.25;;;2.08;;
59054;SDS011;44845;51.444;7.460;2023-03-26T06:35:52;12.52;;;2.05;;
59054;SDS011;44845;51.444;7.460;2023-03-26T06:38:17;14.68;;;2.22;;
59054;SDS011;44845;51.444;7.460;2023-03-26T06:40:42;11.43;;;1.88;;
59054;SDS011;44845;51.444;7.460;2023-03-26T06:43:08;11.55;;;2.00;;
59054;SDS011;44845;51.444;7.460;2023-03-26T06:45:34;12.85;;;2.67;;
59054;SDS011;44845;51.444;7.460;2023-03-26T06:47:59;15.90;;;2.22;;
59054;SDS011;44845;51.444;7.460;2023-03-26T06:50:25;11.65;;;1.92;;
59054;SDS011;44845;51.444;7.460;2023-03-26T06:52:54;11.45;;;2.67;;
59054;SDS011;44845;51.444;7.460;2023-03-26T06:55:20;17.40;;;2.65;;
59054;SDS011;44845;51.444;7.460;2023-03-26T06:57:52;13.68;;;2.50;;
59054;SDS011;44845;51.444;7.460;2023-03-26T07:00:19;12.10;;;2.05;;
59054;SDS011;44845;51.444;7.460;2023-03-26T07:02:45;11.52;;;2.20;;
59054;SDS011;44845;51.444;7.460;2023-03-26T07:05:10;12.85;;;2.53;;
59054;SDS011;44845;51.444;7.460;2023-03-26T07:07:37;12.73;;;2.17;;
59054;SDS011;44845;51.444;7.460;2023-03-26T07:10:03;11.68;;;2.25;;
59054;SDS011;44845;51.444;7.460;2023-03-26T07:12:28;12.82;;;2.75;;
59054;SDS011;44845;51.444;7.460;2023-03-26T07:14:54;12.00;;;3.00;;
59054;SDS011;44845;51.444;7.460;2023-03-26T07:17:19;14.98;;;2.65;;
59054;SDS011;44845;51.444;7.460;2023-03-26T07:19:45;18.33;;;2.38;;
59054;SDS011;44845;51.444;7.460;2023-03-26T07:22:14;14.93;;;2.75;;
59054;SDS011;44845;51.444;7.460;2023-03-26T07:24:44;12.88;;;2.45;;
59054;SDS011;44845;51.444;7.460;2023-03-26T07:35:01;15.82;;;2.60;;
59054;SDS011;44845;51.444;7.460;2023-03-26T07:40:05;10.93;;;2.35;;
59054;SDS011;44845;51.444;7.460;2023-03-26T07:42:56;12.18;;;2.67;;
59054;SDS011;44845;51.444;7.460;2023-03-26T07:45:38;11.45;;;2.42;;
59054;SDS011;44845;51.444;7.460;2023-03-26T07:48:14;11.60;;;2.05;;
59054;SDS011;44845;51.444;7.460;2023-03-26T07:50:54;15.93;;;2.38;;
59054;SDS011;44845;51.444;7.460;2023-03-26T07:53:20;11.35;;;2.30;;
59054;SDS011;44845;51.444;7.460;2023-03-26T07:56:20;13.45;;;3.05;;
59054;SDS011;44845;51.444;7.460;2023-03-26T07:58:42;12.55;;;2.05;;
59054;SDS011;44845;51.444;7.460;2023-03-26T08:01:24;11.52;;;2.13;;
59054;SDS011;44845;51.444;7.460;2023-03-26T08:06:37;12.40;;;2.80;;
59054;SDS011;44845;51.444;7.460;2023-03-26T08:09:12;13.95;;;2.92;;
59054;SDS011;44845;51.444;7.460;2023-03-26T08:14:47;10.33;;;2.87;;
59054;SDS011;44845;51.444;7.460;2023-03-26T08:17:41;12.82;;;2.83;;
59054;SDS011;44845;51.444;7.460;2023-03-26T08:20:22;9.85;;;2.20;;
59054;SDS011;44845;51.444;7.460;2023-03-26T08:22:52;9.30;;;2.58;;
59054;SDS011;44845;51.444;7.460;2023-03-26T08:25:30;10.30;;;2.15;;
59054;SDS011;44845;51.444;7.460;2023-03-26T08:30:33;12.88;;;2.05;;
59054;SDS011;44845;51.444;7.460;2023-03-26T08:33:19;8.52;;;2.35;;
59054;SDS011;44845;51.444;7.460;2023-03-26T08:35:46;10.93;;;1.92;;
59054;SDS011;44845;51.444;7.460;2023-03-26T08:38:14;8.43;;;2.08;;
59054;SDS011;44845;51.444;7.460;2023-03-26T08:43:29;9.32;;;2.13;;
59054;SDS011;44845;51.444;7.460;2023-03-26T08:49:14;12.18;;;1.85;;
59054;SDS011;44845;51.444;7.460;2023-03-26T08:51:49;9.80;;;2.15;;
59054;SDS011;44845;51.444;7.460;2023-03-26T09:02:47;6.95;;;1.80;;
59054;SDS011;44845;51.444;7.460;2023-03-26T09:05:44;10.82;;;2.30;;
59054;SDS011;44845;51.444;7.460;2023-03-26T09:14:38;12.50;;;1.95;;
59054;SDS011;44845;51.444;7.460;2023-03-26T09:25:25;11.70;;;2.10;;
59054;SDS011;44845;51.444;7.460;2023-03-26T09:28:30;10.00;;;1.98;;
59054;SDS011;44845;51.444;7.460;2023-03-26T09:53:50;5.82;;;1.58;;
59054;SDS011;44845;51.444;7.460;2023-03-26T09:59:30;10.57;;;1.60;;
59054;SDS011;44845;51.444;7.460;2023-03-26T10:13:30;6.93;;;1.73;;
59054;SDS011;44845;51.444;7.460;2023-03-26T10:16:22;7.00;;;1.60;;
59054;SDS011;44845;51.444;7.460;2023-03-26T10:32:21;2.20;;;0.80;;
59054;SDS011;44845;51.444;7.460;2023-03-26T10:49:48;3.85;;;0.90;;
59054;SDS011;44845;51.444;7.460;2023-03-26T10:52:46;3.45;;;0.80;;
59054;SDS011;44845;51.444;7.460;2023-03-26T10:55:21;3.10;;;0.88;;
59054;SDS011;44845;51.444;7.460;2023-03-26T10:57:56;1.67;;;0.52;;
59054;SDS011;44845;51.444;7.460;2023-03-26T11:00:27;3.83;;;0.60;;
59054;SDS011;44845;51.444;7.460;2023-03-26T11:11:42;0.98;;;0.40;;
59054;SDS011;44845;51.444;7.460;2023-03-26T11:14:35;2.20;;;0.50;;
59054;SDS011;44845;51.444;7.460;2023-03-26T11:27:36;1.13;;;0.60;;
59054;SDS011;44845;51.444;7.460;2023-03-26T11:32:53;0.95;;;0.70;;
59054;SDS011;44845;51.444;7.460;2023-03-26T11:35:36;1.08;;;0.68;;
59054;SDS011;44845;51.444;7.460;2023-03-26T11:38:05;1.55;;;0.65;;
59054;SDS011;44845;51.444;7.460;2023-03-26T11:40:41;0.52;;;0.38;;
59054;SDS011;44845;51.444;7.460;2023-03-26T11:43:12;0.85;;;0.45;;
59054;SDS011;44845;51.444;7.460;2023-03-26T11:45:41;0.75;;;0.45;;
59054;SDS011;44845;51.444;7.460;2023-03-26T11:48:15;0.73;;;0.38;;
59054;SDS011;44845;51.444;7.460;2023-03-26T11:50:50;2.65;;;0.73;;
59054;SDS011;44845;51.444;7.460;2023-03-26T11:58:46;0.85;;;0.32;;
59054;SDS011;44845;51.444;7.460;2023-03-26T12:01:20;2.50;;;0.60;;
59054;SDS011;44845;51.444;7.460;2023-03-26T12:03:54;0.40;;;0.30;;
59054;SDS011;44845;51.444;7.460;2023-03-26T12:06:29;1.30;;;0.35;;
59054;SDS011;44845;51.444;7.460;2023-03-26T12:08:57;1.77;;;0.63;;
59054;SDS011;44845;51.444;7.460;2023-03-26T12:11:27;1.08;;;0.70;;
59054;SDS011;44845;51.444;7.460;2023-03-26T12:13:59;2.28;;;0.50;;
59054;SDS011;44845;51.444;7.460;2023-03-26T12:16:27;1.02;;;0.30;;
59054;SDS011;44845;51.444;7.460;2023-03-26T12:19:03;1.23;;;0.40;;
59054;SDS011;44845;51.444;7.460;2023-03-26T12:21:46;2.17;;;0.30;;
59054;SDS011;44845;51.444;7.460;2023-03-26T12:26:55;1.90;;;1.00;;
59054;SDS011;44845;51.444;7.460;2023-03-26T12:29:26;1.48;;;0.47;;
59054;SDS011;44845;51.444;7.460;2023-03-26T12:31:56;1.38;;;0.73;;
59054;SDS011;44845;51.444;7.460;2023-03-26T12:34:30;0.68;;;0.40;;
59054;SDS011;44845;51.444;7.460;2023-03-26T12:36:59;1.73;;;1.10;;
59054;SDS011;44845;51.444;7.460;2023-03-26T12:39:30;2.65;;;0.50;;
59054;SDS011;44845;51.444;7.460;2023-03-26T12:41:57;0.70;;;0.30;;
59054;SDS011;44845;51.444;7.460;2023-03-26T12:44:26;1.35;;;0.40;;
59054;SDS011;44845;51.444;7.460;2023-03-26T12:47:13;0.80;;;0.55;;
59054;SDS011;44845;51.444;7.460;2023-03-26T12:49:43;0.52;;;0.45;;
59054;SDS011;44845;51.444;7.460;2023-03-26T12:54:59;0.40;;;0.38;;
59054;SDS011;44845;51.444;7.460;2023-03-26T12:57:32;1.10;;;0.50;;
59054;SDS011;44845;51.444;7.460;2023-03-26T13:02:52;0.65;;;0.30;;
59054;SDS011;44845;51.444;7.460;2023-03-26T13:05:40;0.90;;;0.40;;
59054;SDS011;44845;51.444;7.460;2023-03-26T13:13:51;2.17;;;1.08;;
59054;SDS011;44845;51.444;7.460;2023-03-26T13:19:53;1.02;;;0.40;;
59054;SDS011;44845;51.444;7.460;2023-03-26T13:22:16;0.50;;;0.40;;
59054;SDS011;44845;51.444;7.460;2023-03-26T13:43:32;0.57;;;0.20;;
59054;SDS011;44845;51.444;7.460;2023-03-26T13:46:35;0.98;;;0.40;;
59054;SDS011;44845;51.444;7.460;2023-03-26T13:49:09;0.45;;;0.28;;
59054;SDS011;44845;51.444;7.460;2023-03-26T13:51:40;0.50;;;0.30;;
59054;SDS011;44845;51.444;7.460;2023-03-26T13:56:50;1.25;;;0.32;;
59054;SDS011;44845;51.444;7.460;2023-03-26T13:59:25;0.40;;;0.32;;
59054;SDS011;44845;51.444;7.460;2023-03-26T14:02:04;0.82;;;0.20;;
59054;SDS011;44845;51.444;7.460;2023-03-26T14:04:45;0.50;;;0.22;;
59054;SDS011;44845;51.444;7.460;2023-03-26T14:07:16;0.30;;;0.20;;
59054;SDS011;44845;51.444;7.460;2023-03-26T14:12:24;0.50;;;0.30;;
59054;SDS011;44845;51.444;7.460;2023-03-26T14:18:31;0.30;;;0.30;;
59054;SDS011;44845;51.444;7.460;2023-03-26T14:21:19;0.93;;;0.43;;
59054;SDS011;44845;51.444;7.460;2023-03-26T14:26:45;0.60;;;0.32;;
59054;SDS011;44845;51.444;7.460;2023-03-26T14:32:27;0.40;;;0.40;;
59054;SDS011;44845;51.444;7.460;2023-03-26T14:41:00;1.77;;;0.50;;
59054;SDS011;44845;51.444;7.460;2023-03-26T14:54:17;1.75;;;0.90;;
59054;SDS011;44845;51.444;7.460;2023-03-26T14:57:06;2.33;;;1.35;;
59054;SDS011;44845;51.444;7.460;2023-03-26T15:02:54;1.95;;;0.60;;
59054;SDS011;44845;51.444;7.460;2023-03-26T15:05:58;1.48;;;0.60;;
59054;SDS011;44845;51.444;7.460;2023-03-26T15:11:50;1.17;;;0.50;;
59054;SDS011;44845;51.444;7.460;2023-03-26T15:36:54;1.55;;;0.77;;
59054;SDS011;44845;51.444;7.460;2023-03-26T15:50:45;1.92;;;0.88;;
59054;SDS011;44845;51.444;7.460;2023-03-26T15:53:45;1.75;;;0.60;;
59054;SDS011;44845;51.444;7.460;2023-03-26T16:01:40;3.17;;;0.45;;
59054;SDS011;44845;51.444;7.460;2023-03-26T16:04:55;2.03;;;0.70;;
59054;SDS011;44845;51.444;7.460;2023-03-26T16:10:28;2.25;;;1.00;;
59054;SDS011;44845;51.444;7.460;2023-03-26T16:15:55;5.95;;;1.50;;
59054;SDS011;44845;51.444;7.460;2023-03-26T16:18:36;1.67;;;1.00;;
59054;SDS011;44845;51.444;7.460;2023-03-26T16:29:22;4.20;;;1.90;;
59054;SDS011;44845;51.444;7.460;2023-03-26T16:32:34;4.97;;;1.75;;
59054;SDS011;44845;51.444;7.460;2023-03-26T16:37:48;5.88;;;1.70;;
59054;SDS011;44845;51.444;7.460;2023-03-26T16:40:32;7.00;;;2.63;;
59054;SDS011;44845;51.444;7.460;2023-03-26T16:43:10;4.50;;;2.25;;
59054;SDS011;44845;51.444;7.460;2023-03-26T16:51:26;4.82;;;3.10;;
59054;SDS011;44845;51.444;7.460;2023-03-26T17:05:09;14.23;;;5.90;;
59054;SDS011;44845;51.444;7.460;2023-03-26T17:07:40;17.90;;;6.00;;
59054;SDS011;44845;51.444;7.460;2023-03-26T17:10:21;14.80;;;6.60;;
59054;SDS011;44845;51.444;7.460;2023-03-26T17:18:16;15.95;;;5.78;;
59054;SDS011;44845;51.444;7.460;2023-03-26T17:23:58;13.82;;;5.78;;
59054;SDS011;44845;51.444;7.460;2023-03-26T17:29:25;15.63;;;6.60;;
59054;SDS011;44845;51.444;7.460;2023-03-26T17:42:10;17.40;;;5.25;;
59054;SDS011;44845;51.444;7.460;2023-03-26T17:44:58;16.75;;;4.95;;
59054;SDS011;44845;51.444;7.460;2023-03-26T17:47:42;16.67;;;4.97;;
59054;SDS011;44845;51.444;7.460;2023-03-26T17:50:13;15.45;;;4.30;;
59054;SDS011;44845;51.444;7.460;2023-03-26T17:55:12;13.38;;;3.95;;
59054;SDS011;44845;51.444;7.460;2023-03-26T17:57:45;14.02;;;3.75;;
59054;SDS011;44845;51.444;7.460;2023-03-26T18:00:16;14.63;;;3.40;;
59054;SDS011;44845;51.444;7.460;2023-03-26T18:03:47;12.73;;;3.10;;
59054;SDS011;44845;51.444;7.460;2023-03-26T18:05:47;12.45;;;3.63;;
59054;SDS011;44845;51.444;7.460;2023-03-26T18:08:35;20.17;;;3.60;;
59054;SDS011;44845;51.444;7.460;2023-03-26T18:14:13;11.20;;;2.85;;
59054;SDS011;44845;51.444;7.460;2023-03-26T18:16:47;15.70;;;3.45;;
59054;SDS011;44845;51.444;7.460;2023-03-26T18:19:16;14.88;;;3.03;;
59054;SDS011;44845;51.444;7.460;2023-03-26T18:21:44;11.23;;;2.92;;
59054;SDS011;44845;51.444;7.460;2023-03-26T18:24:15;16.60;;;3.35;;
59054;SDS011;44845;51.444;7.460;2023-03-26T18:26:47;15.25;;;3.33;;
59054;SDS011;44845;51.444;7.460;2023-03-26T18:34:53;14.50;;;3.55;;
59054;SDS011;44845;51.444;7.460;2023-03-26T18:37:26;13.43;;;3.78;;
59054;SDS011;44845;51.444;7.460;2023-03-26T18:39:58;13.93;;;3.30;;
59054;SDS011;44845;51.444;7.460;2023-03-26T18:42:39;19.00;;;3.33;;
59054;SDS011;44845;51.444;7.460;2023-03-26T18:47:47;21.48;;;3.75;;
59054;SDS011;44845;51.444;7.460;2023-03-26T18:50:16;13.05;;;3.85;;
59054;SDS011;44845;51.444;7.460;2023-03-26T18:52:47;18.90;;;3.47;;
59054;SDS011;44845;51.444;7.460;2023-03-26T18:55:12;15.30;;;3.45;;
59054;SDS011;44845;51.444;7.460;2023-03-26T18:57:38;22.88;;;3.97;;
59054;SDS011;44845;51.444;7.460;2023-03-26T19:00:22;16.27;;;2.95;;
59054;SDS011;44845;51.444;7.460;2023-03-26T19:02:50;20.58;;;3.33;;
59054;SDS011;44845;51.444;7.460;2023-03-26T19:05:31;15.57;;;3.10;;
59054;SDS011;44845;51.444;7.460;2023-03-26T19:07:59;8.90;;;3.05;;
59054;SDS011;44845;51.444;7.460;2023-03-26T19:10:27;10.88;;;2.67;;
59054;SDS011;44845;51.444;7.460;2023-03-26T19:12:59;11.63;;;2.33;;
59054;SDS011;44845;51.444;7.460;2023-03-26T19:15:27;15.23;;;2.90;;
59054;SDS011;44845;51.444;7.460;2023-03-26T19:17:55;9.90;;;2.20;;
59054;SDS011;44845;51.444;7.460;2023-03-26T19:20:32;12.07;;;2.30;;
59054;SDS011;44845;51.444;7.460;2023-03-26T19:23:03;14.55;;;2.28;;
59054;SDS011;44845;51.444;7.460;2023-03-26T19:25:37;12.52;;;1.88;;
59054;SDS011;44845;51.444;7.460;2023-03-26T19:28:08;11.65;;;2.22;;
59054;SDS011;44845;51.444;7.460;2023-03-26T19:30:41;10.68;;;2.55;;
59054;SDS011;44845;51.444;7.460;2023-03-26T19:33:16;12.63;;;2.20;;
59054;SDS011;44845;51.444;7.460;2023-03-26T19:35:44;12.45;;;3.03;;
59054;SDS011;44845;51.444;7.460;2023-03-26T19:38:19;11.45;;;2.20;;
59054;SDS011;44845;51.444;7.460;2023-03-26T19:40:47;19.25;;;2.55;;
59054;SDS011;44845;51.444;7.460;2023-03-26T19:43:14;10.20;;;2.20;;
59054;SDS011;44845;51.444;7.460;2023-03-26T19:45:39;18.88;;;2.33;;
59054;SDS011;44845;51.444;7.460;2023-03-26T19:48:06;14.52;;;2.00;;
59054;SDS011;44845;51.444;7.460;2023-03-26T19:50:34;8.88;;;1.95;;
59054;SDS011;44845;51.444;7.460;2023-03-26T19:55:28;16.30;;;2.30;;
59054;SDS011;44845;51.444;7.460;2023-03-26T19:57:54;9.20;;;2.30;;
59054;SDS011;44845;51.444;7.460;2023-03-26T20:00:19;12.27;;;1.77;;
59054;SDS011;44845;51.444;7.460;2023-03-26T20:02:45;9.30;;;2.00;;
59054;SDS011;44845;51.444;7.460;2023-03-26T20:05:23;10.27;;;1.60;;
59054;SDS011;44845;51.444;7.460;2023-03-26T20:07:50;11.05;;;1.75;;
59054;SDS011;44845;51.444;7.460;2023-03-26T20:10:16;11.85;;;2.03;;
59054;SDS011;44845;51.444;7.460;2023-03-26T20:12:42;15.35;;;2.03;;
59054;SDS011;44845;51.444;7.460;2023-03-26T20:15:12;13.55;;;2.25;;
59054;SDS011;44845;51.444;7.460;2023-03-26T20:17:44;8.02;;;1.60;;
59054;SDS011;44845;51.444;7.460;2023-03-26T20:20:10;15.18;;;1.85;;
59054;SDS011;44845;51.444;7.460;2023-03-26T20:22:36;11.90;;;1.60;;
59054;SDS011;44845;51.444;7.460;2023-03-26T20:25:24;7.80;;;2.17;;
59054;SDS011;44845;51.444;7.460;2023-03-26T20:27:50;7.03;;;1.23;;
59054;SDS011;44845;51.444;7.460;2023-03-26T20:30:19;8.23;;;1.33;;
59054;SDS011;44845;51.444;7.460;2023-03-26T20:32:48;8.18;;;1.55;;
59054;SDS011;44845;51.444;7.460;2023-03-26T20:35:21;10.27;;;1.42;;
59054;SDS011;44845;51.444;7.460;2023-03-26T20:37:48;12.10;;;1.88;;
59054;SDS011;44845;51.444;7.460;2023-03-26T20:40:15;15.95;;;2.00;;
59054;SDS011;44845;51.444;7.460;2023-03-26T20:42:42;7.10;;;1.65;;
59054;SDS011;44845;51.444;7.460;2023-03-26T20:45:15;9.18;;;1.60;;
59054;SDS011;44845;51.444;7.460;2023-03-26T20:47:44;12.82;;;1.65;;